createdAt,value
2018-02-07T00:22:11.548Z,62.38
2018-02-07T00:24:39.072Z,62.51
2018-02-07T00:27:06.591Z,62.94
2018-02-07T00:29:34.110Z,62.98
2018-02-07T00:32:01.630Z,63.01
2018-02-07T00:34:29.143Z,63.01
2018-02-07T00:36:56.672Z,63.22
2018-02-07T00:39:24.193Z,63.07
2018-02-07T00:41:51.721Z,63.67
2018-02-07T00:44:19.253Z,63.72
2018-02-07T00:46:46.776Z,63.98
2018-02-07T00:49:14.313Z,64.15
2018-02-07T00:51:41.846Z,63.56
2018-02-07T00:54:09.366Z,63.87
2018-02-07T00:56:36.905Z,63.97
2018-02-07T00:59:04.424Z,63.84
2018-02-07T01:01:31.939Z,63.92
2018-02-07T01:03:59.457Z,64.21
2018-02-07T01:06:26.985Z,64.56
2018-02-07T01:08:54.545Z,64.64
2018-02-07T01:11:22.073Z,64.82
2018-02-07T01:13:49.624Z,64.98
2018-02-07T01:16:17.153Z,65.28
2018-02-07T01:18:44.688Z,65.21
2018-02-07T01:21:12.207Z,65.25
2018-02-07T01:23:39.724Z,65.22
2018-02-07T01:26:07.241Z,65.24
2018-02-07T01:28:34.780Z,65.65
2018-02-07T01:31:02.301Z,65.60
2018-02-07T01:33:29.829Z,65.82
2018-02-07T01:35:57.362Z,65.83
2018-02-07T01:38:24.877Z,66.06
2018-02-07T01:40:52.395Z,66.04
2018-02-07T01:43:19.914Z,65.81
2018-02-07T01:45:47.444Z,65.71
2018-02-07T01:48:14.974Z,66.11
2018-02-07T01:50:42.500Z,65.93
2018-02-07T01:53:10.021Z,66.18
2018-02-07T01:55:37.547Z,65.91
2018-02-07T01:58:05.079Z,66.30
2018-02-07T02:00:32.704Z,65.94
2018-02-07T02:03:00.227Z,66.67
2018-02-07T02:05:27.767Z,66.46
2018-02-07T02:07:55.281Z,66.46
2018-02-07T02:10:22.795Z,66.79
2018-02-07T02:12:50.318Z,66.17
2018-02-07T02:15:17.842Z,66.96
2018-02-07T02:17:45.360Z,66.91
2018-02-07T02:20:12.880Z,66.46
2018-02-07T02:22:40.412Z,66.83
2018-02-07T02:25:07.929Z,67.08
2018-02-07T02:27:35.454Z,67.31
2018-02-07T02:30:02.977Z,67.14
2018-02-07T02:32:30.507Z,67.15
2018-02-07T02:34:58.030Z,67.37
2018-02-07T02:37:25.553Z,67.36
2018-02-07T02:39:53.084Z,67.13
2018-02-07T02:42:20.602Z,66.81
2018-02-07T02:44:48.140Z,67.11
2018-02-07T02:47:15.768Z,67.69
2018-02-07T02:49:43.290Z,67.30
2018-02-07T02:52:10.815Z,67.25
2018-02-07T02:54:38.342Z,67.33
2018-02-07T02:57:05.868Z,66.98
2018-02-07T02:59:33.388Z,67.14
2018-02-07T03:02:00.921Z,67.51
2018-02-07T03:04:28.445Z,67.39
2018-02-07T03:06:55.972Z,67.05
2018-02-07T03:09:23.498Z,67.20
2018-02-07T03:11:51.015Z,67.13
2018-02-07T03:14:18.541Z,67.34
2018-02-07T03:16:46.072Z,67.46
2018-02-07T03:19:13.592Z,67.27
2018-02-07T03:21:41.147Z,67.88
2018-02-07T03:24:08.686Z,68.05
2018-02-07T03:26:36.210Z,67.51
2018-02-07T03:29:03.729Z,67.40
2018-02-07T03:31:31.266Z,67.56
2018-02-07T03:33:58.788Z,68.00
2018-02-07T03:36:26.309Z,67.67
2018-02-07T03:38:53.839Z,67.72
2018-02-07T03:41:21.371Z,67.57
2018-02-07T03:43:48.884Z,67.65
2018-02-07T03:46:16.419Z,67.48
2018-02-07T03:48:43.931Z,67.66
2018-02-07T03:51:11.458Z,67.69
2018-02-07T03:53:38.995Z,68.09
2018-02-07T03:56:06.507Z,68.10
2018-02-07T03:58:34.019Z,67.92
2018-02-07T04:01:01.544Z,68.03
2018-02-07T04:03:29.058Z,67.94
2018-02-07T04:05:56.586Z,68.14
2018-02-07T04:08:24.106Z,68.09
2018-02-07T04:10:51.632Z,68.01
2018-02-07T04:13:19.172Z,68.32
2018-02-07T04:15:46.697Z,68.52
2018-02-07T04:18:14.217Z,68.42
2018-02-07T04:20:41.750Z,68.59
2018-02-07T04:23:09.270Z,68.45
2018-02-07T04:25:36.799Z,68.44
2018-02-07T04:28:04.325Z,68.94
2018-02-07T04:30:31.876Z,68.30
2018-02-07T04:32:59.409Z,68.53
2018-02-07T04:35:26.976Z,68.86
2018-02-07T04:37:54.483Z,68.79
2018-02-07T04:40:22.025Z,68.95
2018-02-07T04:42:49.547Z,68.94
2018-02-07T04:45:17.076Z,69.14
2018-02-07T04:47:44.613Z,69.00
2018-02-07T04:50:12.132Z,68.84
2018-02-07T04:52:39.654Z,68.92
2018-02-07T04:55:07.185Z,69.14
2018-02-07T04:57:34.702Z,69.25
2018-02-07T05:00:02.234Z,69.17
2018-02-07T05:02:29.760Z,69.22
2018-02-07T05:04:57.272Z,68.99
2018-02-07T05:07:24.796Z,68.73
2018-02-07T05:09:52.344Z,69.08
2018-02-07T05:12:19.871Z,69.09
2018-02-07T05:14:47.409Z,69.27
2018-02-07T05:17:14.929Z,69.36
2018-02-07T05:19:42.462Z,68.91
2018-02-07T05:22:09.977Z,69.23
2018-02-07T05:24:37.505Z,68.95
2018-02-07T05:27:05.036Z,68.94
2018-02-07T05:29:32.595Z,69.42
2018-02-07T05:32:00.124Z,69.01
2018-02-07T05:34:27.648Z,69.46
2018-02-07T05:36:55.195Z,69.32
2018-02-07T05:39:22.778Z,68.92
2018-02-07T05:41:50.289Z,69.12
2018-02-07T05:44:17.811Z,68.97
2018-02-07T05:46:45.340Z,69.13
2018-02-07T05:49:12.866Z,69.09
2018-02-07T05:51:40.390Z,69.30
2018-02-07T05:54:07.913Z,69.62
2018-02-07T05:56:35.476Z,69.04
2018-02-07T05:59:02.994Z,69.44
2018-02-07T06:01:30.532Z,69.60
2018-02-07T06:03:58.052Z,69.62
2018-02-07T06:06:25.584Z,69.85
2018-02-07T06:08:53.152Z,69.64
2018-02-07T06:11:20.733Z,69.76
2018-02-07T06:13:48.259Z,69.67
2018-02-07T06:16:15.791Z,69.58
2018-02-07T06:18:43.323Z,69.95
2018-02-07T06:21:10.861Z,69.75
2018-02-07T06:23:38.391Z,69.74
2018-02-07T06:26:05.924Z,69.66
2018-02-07T06:28:33.448Z,69.52
2018-02-07T06:31:00.975Z,69.51
2018-02-07T06:33:28.502Z,69.53
2018-02-07T06:35:56.021Z,69.34
2018-02-07T06:38:23.548Z,69.22
2018-02-07T06:40:51.077Z,69.54
2018-02-07T06:43:18.598Z,69.48
2018-02-07T06:45:46.127Z,69.52
2018-02-07T06:48:13.656Z,69.51
2018-02-07T06:50:41.728Z,69.70
2018-02-07T06:53:09.248Z,69.97
2018-02-07T06:55:36.785Z,69.42
2018-02-07T06:58:04.346Z,69.40
2018-02-07T07:00:31.893Z,69.63
2018-02-07T07:02:59.426Z,69.61
2018-02-07T07:05:26.940Z,69.40
2018-02-07T07:07:54.471Z,69.81
2018-02-07T07:10:22.001Z,69.66
2018-02-07T07:12:49.523Z,69.21
2018-02-07T07:15:17.046Z,69.79
2018-02-07T07:17:44.580Z,69.96
2018-02-07T07:20:12.195Z,69.80
2018-02-07T07:22:39.707Z,70.18
2018-02-07T07:25:07.240Z,69.96
2018-02-07T07:27:34.772Z,69.48
2018-02-07T07:30:02.303Z,70.23
2018-02-07T07:32:29.824Z,69.43
2018-02-07T07:34:57.350Z,69.32
2018-02-07T07:37:24.881Z,69.05
2018-02-07T07:39:52.410Z,68.37
2018-02-07T07:42:19.932Z,68.39
2018-02-07T07:44:47.460Z,68.44
2018-02-07T07:47:14.984Z,68.37
2018-02-07T07:49:42.514Z,68.24
2018-02-07T07:52:10.069Z,68.08
2018-02-07T07:54:37.604Z,68.13
2018-02-07T07:57:05.121Z,68.15
2018-02-07T07:59:32.640Z,67.87
2018-02-07T08:02:00.173Z,68.54
2018-02-07T08:04:27.700Z,72.60
2018-02-07T08:06:55.222Z,68.64
2018-02-07T08:09:22.748Z,68.61
2018-02-07T08:11:50.276Z,67.77
2018-02-07T08:14:17.792Z,67.60
2018-02-07T08:16:45.325Z,67.47
2018-02-07T08:19:12.856Z,67.78
2018-02-07T08:21:40.375Z,67.76
2018-02-07T08:24:07.903Z,68.48
2018-02-07T08:26:35.432Z,68.06
2018-02-07T08:29:02.997Z,67.77
2018-02-07T08:31:30.515Z,67.89
2018-02-07T08:33:58.042Z,67.29
2018-02-07T08:36:25.580Z,67.49
2018-02-07T08:38:53.111Z,66.77
2018-02-07T08:41:20.733Z,67.98
2018-02-07T08:43:48.321Z,66.96
2018-02-07T08:46:15.869Z,67.39
2018-02-07T08:48:43.406Z,67.89
2018-02-07T08:51:10.926Z,68.09
2018-02-07T08:53:38.450Z,67.97
2018-02-07T08:56:05.973Z,67.69
2018-02-07T08:58:33.509Z,67.55
2018-02-07T09:01:01.029Z,67.84
2018-02-07T09:03:28.549Z,68.21
2018-02-07T09:05:56.085Z,68.06
2018-02-07T09:08:23.603Z,67.60
2018-02-07T09:10:51.126Z,67.18
2018-02-07T09:13:18.657Z,67.36
2018-02-07T09:15:46.196Z,67.55
2018-02-07T09:18:13.734Z,66.88
2018-02-07T09:20:41.267Z,66.33
2018-02-07T09:23:08.794Z,65.99
2018-02-07T09:25:36.304Z,65.12
2018-02-07T09:28:03.843Z,64.89
2018-02-07T09:30:31.368Z,64.97
2018-02-07T09:32:58.889Z,64.59
2018-02-07T09:35:26.450Z,66.66
2018-02-07T09:37:54.122Z,65.65
2018-02-07T09:40:21.678Z,65.82
2018-02-07T09:42:49.236Z,64.93
2018-02-07T09:45:16.759Z,63.99
2018-02-07T09:47:44.270Z,62.69
2018-02-07T09:50:11.908Z,61.46
2018-02-07T09:52:39.438Z,61.23
2018-02-07T09:55:07.018Z,59.76
2018-02-07T09:57:34.532Z,58.89
2018-02-07T10:00:02.136Z,59.20
2018-02-07T10:02:29.661Z,57.33
2018-02-07T10:04:57.254Z,57.03
2018-02-07T10:07:24.788Z,55.00
2018-02-07T10:09:52.323Z,54.78
2018-02-07T10:12:19.837Z,53.02
2018-02-07T10:14:47.372Z,52.86
2018-02-07T10:17:14.955Z,54.42
2018-02-07T10:19:42.514Z,54.10
2018-02-07T10:22:10.077Z,51.46
2018-02-07T10:24:37.598Z,56.32
2018-02-07T10:27:05.129Z,52.59
2018-02-07T10:29:32.653Z,53.47
2018-02-07T10:32:00.190Z,54.50
2018-02-07T10:34:27.717Z,54.54
2018-02-07T10:36:55.231Z,53.16
2018-02-07T10:39:22.766Z,54.64
2018-02-07T10:41:50.289Z,54.79
2018-02-07T10:44:17.806Z,55.39
2018-02-07T10:46:45.342Z,55.22
2018-02-07T10:49:12.924Z,55.07
2018-02-07T10:51:40.463Z,54.56
2018-02-07T10:54:08.045Z,54.13
2018-02-07T10:56:35.581Z,55.17
2018-02-07T10:59:03.164Z,54.89
2018-02-07T11:01:30.700Z,54.59
2018-02-07T11:03:58.285Z,54.51
2018-02-07T11:06:25.829Z,54.95
2018-02-07T11:08:53.404Z,55.04
2018-02-07T11:11:20.980Z,55.85
2018-02-07T11:13:48.502Z,56.60
2018-02-07T11:16:16.012Z,57.51
2018-02-07T11:18:43.543Z,57.00
2018-02-07T11:21:11.076Z,57.25
2018-02-07T11:23:40.619Z,58.25
2018-02-07T11:26:08.133Z,58.29
2018-02-07T11:28:35.672Z,58.13
2018-02-07T11:31:03.235Z,58.89
2018-02-07T11:33:30.750Z,58.87
2018-02-07T11:35:58.268Z,59.20
2018-02-07T11:38:25.792Z,58.79
2018-02-07T11:40:53.313Z,58.36
2018-02-07T11:43:20.840Z,59.52
2018-02-07T11:45:48.385Z,59.89
2018-02-07T11:48:15.902Z,59.59
2018-02-07T11:50:43.439Z,59.37
2018-02-07T11:53:10.952Z,59.21
2018-02-07T11:55:38.478Z,60.10
2018-02-07T11:58:06.795Z,59.99
2018-02-07T12:00:34.313Z,59.31
2018-02-07T12:03:01.846Z,58.74
2018-02-07T12:05:29.364Z,58.96
2018-02-07T12:07:56.933Z,59.22
2018-02-07T12:10:24.453Z,59.15
2018-02-07T12:12:51.986Z,58.62
2018-02-07T12:15:19.517Z,58.19
2018-02-07T12:17:47.036Z,58.48
2018-02-07T12:20:15.250Z,58.98
2018-02-07T12:22:42.761Z,58.85
2018-02-07T12:25:10.325Z,59.14
2018-02-07T12:27:37.854Z,59.15
2018-02-07T12:30:05.381Z,59.37
2018-02-07T12:32:33.000Z,59.12
2018-02-07T12:35:00.532Z,58.81
2018-02-07T12:37:28.060Z,58.56
2018-02-07T12:39:55.572Z,58.87
2018-02-07T12:42:23.109Z,58.79
2018-02-07T12:44:50.640Z,58.67
2018-02-07T12:47:18.164Z,58.97
2018-02-07T12:49:45.672Z,58.75
2018-02-07T12:52:13.217Z,58.98
2018-02-07T12:54:40.735Z,58.98
2018-02-07T12:57:08.265Z,59.25
2018-02-07T12:59:35.787Z,58.97
2018-02-07T13:02:03.310Z,58.78
2018-02-07T13:04:30.827Z,58.09
2018-02-07T13:06:58.345Z,58.12
2018-02-07T13:09:25.880Z,58.18
2018-02-07T13:11:53.423Z,58.41
2018-02-07T13:14:20.936Z,58.20
2018-02-07T13:16:48.452Z,57.89
2018-02-07T13:19:15.964Z,58.20
2018-02-07T13:21:43.474Z,57.77
2018-02-07T13:24:11.005Z,57.62
2018-02-07T13:26:38.537Z,57.81
2018-02-07T13:29:06.049Z,57.43
2018-02-07T13:31:33.565Z,58.19
2018-02-07T13:34:01.078Z,57.72
2018-02-07T13:36:28.600Z,58.13
2018-02-07T13:38:56.117Z,58.00
2018-02-07T13:41:23.662Z,57.60
2018-02-07T13:43:51.178Z,57.84
2018-02-07T13:46:18.708Z,57.93
2018-02-07T13:48:46.220Z,58.07
2018-02-07T13:51:13.758Z,57.76
2018-02-07T13:53:41.284Z,57.94
2018-02-07T13:56:08.799Z,57.83
2018-02-07T13:58:36.313Z,57.75
2018-02-07T14:01:03.830Z,57.72
2018-02-07T14:03:31.360Z,57.18
2018-02-07T14:05:58.882Z,56.67
2018-02-07T14:08:26.408Z,56.87
2018-02-07T14:10:53.928Z,56.71
2018-02-07T14:13:21.466Z,56.23
2018-02-07T14:15:48.977Z,55.70
2018-02-07T14:18:16.487Z,55.23
2018-02-07T14:20:43.995Z,55.21
2018-02-07T14:23:11.515Z,54.65
2018-02-07T14:25:39.036Z,54.65
2018-02-07T14:28:06.569Z,54.52
2018-02-07T14:30:34.100Z,54.35
2018-02-07T14:33:01.631Z,54.44
2018-02-07T14:35:29.150Z,53.57
2018-02-07T14:37:56.659Z,53.89
2018-02-07T14:40:24.165Z,54.63
2018-02-07T14:42:51.694Z,53.91
2018-02-07T14:45:19.220Z,53.16
2018-02-07T14:47:46.734Z,53.71
2018-02-07T14:50:14.256Z,52.79
2018-02-07T14:52:41.781Z,53.16
2018-02-07T14:55:09.442Z,52.81
2018-02-07T14:57:36.979Z,52.82
2018-02-07T15:00:04.492Z,53.27
2018-02-07T15:02:32.028Z,53.06
2018-02-07T15:04:59.550Z,53.05
2018-02-07T15:07:27.071Z,53.21
2018-02-07T15:09:54.589Z,52.56
2018-02-07T15:12:22.104Z,53.09
2018-02-07T15:14:49.633Z,53.11
2018-02-07T15:17:17.160Z,52.99
2018-02-07T15:19:44.705Z,52.76
2018-02-07T15:22:12.242Z,52.33
2018-02-07T15:24:39.783Z,52.04
2018-02-07T15:27:07.312Z,52.18
2018-02-07T15:29:34.836Z,52.54
2018-02-07T15:32:02.380Z,52.73
2018-02-07T15:34:29.914Z,52.58
2018-02-07T15:36:57.445Z,53.16
2018-02-07T15:39:24.976Z,53.58
2018-02-07T15:41:52.511Z,54.38
2018-02-07T15:44:20.045Z,54.41
2018-02-07T15:46:47.556Z,55.06
2018-02-07T15:49:15.069Z,55.21
2018-02-07T15:51:42.597Z,55.35
2018-02-07T15:54:10.128Z,55.98
2018-02-07T15:56:37.646Z,56.29
2018-02-07T15:59:05.156Z,56.54
2018-02-07T16:01:32.706Z,56.76
2018-02-07T16:04:00.220Z,56.89
2018-02-07T16:06:27.743Z,57.28
2018-02-07T16:08:55.261Z,57.69
2018-02-07T16:11:22.770Z,57.74
2018-02-07T16:13:50.300Z,58.06
2018-02-07T16:16:17.834Z,57.78
2018-02-07T16:18:45.369Z,57.18
2018-02-07T16:21:12.879Z,56.70
2018-02-07T16:23:40.393Z,56.90
2018-02-07T16:26:07.951Z,57.28
2018-02-07T16:28:35.466Z,57.32
2018-02-07T16:31:02.991Z,57.29
2018-02-07T16:33:30.522Z,57.37
2018-02-07T16:35:58.036Z,57.41
2018-02-07T16:38:25.552Z,57.62
2018-02-07T16:40:53.080Z,57.46
2018-02-07T16:43:20.629Z,57.83
2018-02-07T16:45:48.164Z,57.83
2018-02-07T16:48:15.705Z,58.19
2018-02-07T16:50:43.271Z,58.10
2018-02-07T16:53:10.872Z,57.29
2018-02-07T16:55:38.383Z,57.82
2018-02-07T16:58:05.913Z,57.18
2018-02-07T17:00:33.429Z,57.21
2018-02-07T17:03:00.963Z,57.27
2018-02-07T17:05:28.523Z,56.97
2018-02-07T17:07:56.049Z,57.37
2018-02-07T17:10:23.646Z,57.33
2018-02-07T17:12:51.158Z,57.36
2018-02-07T17:15:18.677Z,57.85
2018-02-07T17:17:46.220Z,57.94
2018-02-07T17:20:13.768Z,57.86
2018-02-07T17:22:41.304Z,58.25
2018-02-07T17:25:08.874Z,57.98
2018-02-07T17:27:36.386Z,58.14
2018-02-07T17:30:03.936Z,57.86
2018-02-07T17:32:31.576Z,57.06
2018-02-07T17:34:59.133Z,57.28
2018-02-07T17:37:26.669Z,56.48
2018-02-07T17:39:54.187Z,56.35
2018-02-07T17:42:21.711Z,55.58
2018-02-07T17:44:49.247Z,55.33
2018-02-07T17:47:16.760Z,55.61
2018-02-07T17:49:44.320Z,55.39
2018-02-07T17:52:11.823Z,55.55
2018-02-07T17:54:39.354Z,55.75
2018-02-07T17:57:06.889Z,56.03
2018-02-07T17:59:34.428Z,56.09
2018-02-07T18:02:02.020Z,55.43
2018-02-07T18:04:30.233Z,55.72
2018-02-07T18:06:57.752Z,55.15
2018-02-07T18:09:25.353Z,55.77
2018-02-07T18:11:52.882Z,55.94
2018-02-07T18:14:20.398Z,56.43
2018-02-07T18:16:47.927Z,56.71
2018-02-07T18:19:15.443Z,57.33
2018-02-07T18:21:42.975Z,57.29
2018-02-07T18:24:10.503Z,57.49
2018-02-07T18:26:38.032Z,57.76
2018-02-07T18:29:05.582Z,58.07
2018-02-07T18:31:33.105Z,58.73
2018-02-07T18:34:01.872Z,59.14
2018-02-07T18:36:29.434Z,59.78
2018-02-07T18:38:56.994Z,59.96
2018-02-07T18:41:24.509Z,60.80
2018-02-07T18:43:52.035Z,61.19
2018-02-07T18:46:19.575Z,61.63
2018-02-07T18:48:47.124Z,61.84
2018-02-07T18:51:14.654Z,62.50
2018-02-07T18:53:42.174Z,62.46
2018-02-07T18:56:09.709Z,62.81
2018-02-07T18:58:37.232Z,63.16
2018-02-07T19:01:04.754Z,63.40
2018-02-07T19:03:32.283Z,63.66
2018-02-07T19:05:59.848Z,63.78
2018-02-07T19:08:27.375Z,63.99
2018-02-07T19:10:54.912Z,63.86
2018-02-07T19:13:22.448Z,64.12
2018-02-07T19:15:50.690Z,64.13
2018-02-07T19:18:18.232Z,64.10
2018-02-07T19:20:45.985Z,64.04
2018-02-07T19:23:20.573Z,63.88
2018-02-07T19:25:49.670Z,64.12
2018-02-07T19:28:22.112Z,64.59
2018-02-07T19:30:49.677Z,64.42
2018-02-07T19:33:17.192Z,64.60
2018-02-07T19:35:44.715Z,64.70
2018-02-07T19:38:12.693Z,64.80
2018-02-07T19:40:40.224Z,63.88
2018-02-07T19:43:07.779Z,64.96
2018-02-07T19:45:35.300Z,64.75
2018-02-07T19:48:02.821Z,64.19
2018-02-07T19:50:30.362Z,64.92
2018-02-07T19:52:57.922Z,64.77
2018-02-07T19:55:25.503Z,65.10
2018-02-07T19:57:54.053Z,64.65
2018-02-07T20:00:22.409Z,64.27
2018-02-07T20:02:49.928Z,64.57
2018-02-07T20:05:18.658Z,65.00
2018-02-07T20:07:46.223Z,65.22
2018-02-07T20:10:14.604Z,65.45
2018-02-07T20:12:42.145Z,65.37
2018-02-07T20:15:09.690Z,65.61
2018-02-07T20:17:37.228Z,65.92
2018-02-07T20:20:05.941Z,65.34
2018-02-07T20:22:33.506Z,65.80
2018-02-07T20:25:01.030Z,65.97
2018-02-07T20:27:28.563Z,66.22
2018-02-07T20:29:56.086Z,66.44
2018-02-07T20:32:23.661Z,66.42
2018-02-07T20:34:51.237Z,66.48
2018-02-07T20:37:18.762Z,66.49
2018-02-07T20:39:46.286Z,66.79
2018-02-07T20:42:13.817Z,67.18
2018-02-07T20:44:41.345Z,66.91
2018-02-07T20:47:08.888Z,67.27
2018-02-07T20:49:36.423Z,67.29
2018-02-07T20:52:03.953Z,67.48
2018-02-07T20:54:31.475Z,67.97
2018-02-07T20:56:59.021Z,68.19
2018-02-07T20:59:26.558Z,68.18
2018-02-07T21:01:54.088Z,68.33
2018-02-07T21:04:21.610Z,68.61
2018-02-07T21:06:49.136Z,68.58
2018-02-07T21:09:16.665Z,68.79
2018-02-07T21:11:44.181Z,68.93
2018-02-07T21:14:11.717Z,68.92
2018-02-07T21:16:39.245Z,69.12
2018-02-07T21:19:06.800Z,69.26
2018-02-07T21:21:34.325Z,69.15
2018-02-07T21:24:01.877Z,69.34
2018-02-07T21:26:29.409Z,69.34
2018-02-07T21:28:57.655Z,69.55
2018-02-07T21:31:25.177Z,69.00
2018-02-07T21:33:52.703Z,69.58
2018-02-07T21:36:20.233Z,69.66
2018-02-07T21:38:47.789Z,69.68
2018-02-07T21:41:15.315Z,69.96
2018-02-07T21:43:42.850Z,69.82
2018-02-07T21:46:10.417Z,70.00
2018-02-07T21:48:37.958Z,69.78
2018-02-07T21:51:05.501Z,69.85
2018-02-07T21:53:33.051Z,69.71
2018-02-07T21:56:00.576Z,70.08
2018-02-07T21:58:28.117Z,70.01
2018-02-07T22:00:55.662Z,69.75
2018-02-07T22:03:23.215Z,70.62
2018-02-07T22:05:50.746Z,70.93
2018-02-07T22:08:18.261Z,70.97
2018-02-07T22:10:45.794Z,70.95
2018-02-07T22:13:13.378Z,71.02
2018-02-07T22:15:40.880Z,71.06
2018-02-07T22:18:08.494Z,70.91
2018-02-07T22:20:36.031Z,71.53
2018-02-07T22:23:03.636Z,70.99
2018-02-07T22:25:31.188Z,71.36
2018-02-07T22:27:59.083Z,71.59
2018-02-07T22:30:26.648Z,72.09
2018-02-07T22:32:54.179Z,72.30
2018-02-07T22:35:21.730Z,72.48
2018-02-07T22:37:49.257Z,72.57
2018-02-07T22:40:16.791Z,72.83
2018-02-07T22:42:44.317Z,72.91
2018-02-07T22:45:11.852Z,73.12
2018-02-07T22:47:39.435Z,72.13
2018-02-07T22:50:06.984Z,73.18
2018-02-07T22:52:34.531Z,73.28
2018-02-07T22:55:02.080Z,73.29
2018-02-07T22:57:29.632Z,73.54
2018-02-07T22:59:57.165Z,73.60
2018-02-07T23:02:24.679Z,73.60
2018-02-07T23:04:52.215Z,73.48
2018-02-07T23:07:19.753Z,73.51
2018-02-07T23:09:47.305Z,73.71
2018-02-07T23:12:14.855Z,74.07
2018-02-07T23:14:42.382Z,74.19
2018-02-07T23:17:09.904Z,73.95
2018-02-07T23:19:37.419Z,74.02
2018-02-07T23:22:04.948Z,74.00
2018-02-07T23:24:32.480Z,74.40
2018-02-07T23:27:00.017Z,74.50
2018-02-07T23:29:27.573Z,74.31
2018-02-07T23:31:55.099Z,74.64
2018-02-07T23:34:22.643Z,74.66
2018-02-07T23:36:50.178Z,74.76
2018-02-07T23:39:17.696Z,74.77
2018-02-07T23:41:45.224Z,74.68
2018-02-07T23:44:12.757Z,74.82
2018-02-07T23:46:40.288Z,74.92
2018-02-07T23:49:07.804Z,74.72
2018-02-07T23:51:35.334Z,74.76
2018-02-07T23:54:02.866Z,75.12
2018-02-07T23:56:30.384Z,75.11
2018-02-07T23:58:57.913Z,75.26
